createdAt,value
2019-06-10T00:00:11.794Z,21.90
2019-06-10T00:01:08.219Z,21.82
2019-06-10T00:02:05.815Z,21.82
2019-06-10T00:03:06.010Z,21.83
2019-06-10T00:04:08.419Z,21.85
2019-06-10T00:05:05.973Z,21.81
2019-06-10T00:06:05.724Z,21.82
2019-06-10T00:07:05.871Z,21.74
2019-06-10T00:08:05.785Z,21.75
2019-06-10T00:09:07.645Z,21.82
2019-06-10T00:10:06.170Z,21.75
2019-06-10T00:11:06.142Z,21.75
2019-06-10T00:12:06.001Z,21.77
2019-06-10T00:13:05.704Z,21.74
2019-06-10T00:14:06.062Z,21.75
2019-06-10T00:15:05.939Z,21.77
2019-06-10T00:16:06.299Z,21.70
2019-06-10T00:17:06.308Z,21.79
2019-06-10T00:18:26.924Z,21.74
2019-06-10T00:19:06.887Z,21.73
2019-06-10T00:20:05.425Z,21.79
2019-06-10T00:21:05.512Z,21.77
2019-06-10T00:22:06.605Z,21.77
2019-06-10T00:23:05.649Z,21.73
2019-06-10T00:24:05.661Z,21.71
2019-06-10T00:25:05.784Z,21.71
2019-06-10T00:26:07.534Z,21.70
2019-06-10T00:27:05.924Z,21.75
2019-06-10T00:28:06.080Z,21.73
2019-06-10T00:29:05.876Z,21.75
2019-06-10T00:30:06.489Z,21.73
2019-06-10T00:31:05.724Z,21.77
2019-06-10T00:32:06.546Z,21.73
2019-06-10T00:33:06.078Z,21.70
2019-06-10T00:34:05.974Z,21.74
2019-06-10T00:35:05.967Z,21.73
2019-06-10T00:36:07.046Z,21.68
2019-06-10T00:37:06.316Z,21.68
2019-06-10T00:38:07.229Z,21.71
2019-06-10T00:39:06.512Z,21.74
2019-06-10T00:40:05.947Z,21.74
2019-06-10T00:41:07.230Z,21.79
2019-06-10T00:42:07.590Z,21.71
2019-06-10T00:43:06.581Z,21.74
2019-06-10T00:44:05.648Z,21.68
2019-06-10T00:45:06.989Z,21.75
2019-06-10T00:46:05.917Z,21.66
2019-06-10T00:47:06.501Z,21.67
2019-06-10T00:48:12.430Z,21.71
2019-06-10T00:49:06.297Z,21.68
2019-06-10T00:50:07.292Z,21.71
2019-06-10T00:51:05.737Z,21.70
2019-06-10T00:52:05.813Z,21.63
2019-06-10T00:53:05.872Z,21.59
2019-06-10T00:54:05.308Z,21.58
2019-06-10T00:55:05.838Z,21.59
2019-06-10T00:56:05.673Z,21.56
2019-06-10T00:57:05.504Z,21.55
2019-06-10T00:58:05.688Z,21.59
2019-06-10T00:59:05.475Z,21.53
2019-06-10T01:00:14.541Z,21.58
2019-06-10T01:01:05.989Z,21.61
2019-06-10T01:02:05.050Z,21.55
2019-06-10T01:03:04.197Z,21.51
2019-06-10T01:04:06.532Z,21.48
2019-06-10T01:05:05.073Z,21.55
2019-06-10T01:06:04.726Z,21.46
2019-06-10T01:07:04.374Z,21.43
2019-06-10T01:08:04.609Z,21.46
2019-06-10T01:09:04.521Z,21.46
2019-06-10T01:10:04.693Z,21.38
2019-06-10T01:11:10.059Z,21.34
2019-06-10T01:12:05.099Z,21.40
2019-06-10T01:13:05.089Z,21.40
2019-06-10T01:14:05.180Z,21.37
2019-06-10T01:15:05.216Z,21.37
2019-06-10T01:16:05.318Z,21.36
2019-06-10T01:17:04.043Z,21.30
2019-06-10T01:18:04.037Z,21.33
2019-06-10T01:19:04.031Z,21.36
2019-06-10T01:20:04.014Z,21.36
2019-06-10T01:21:04.004Z,21.31
2019-06-10T01:22:03.993Z,21.33
2019-06-10T01:23:04.983Z,21.34
2019-06-10T01:24:05.028Z,21.27
2019-06-10T01:25:05.136Z,21.33
2019-06-10T01:26:05.597Z,21.34
2019-06-10T01:27:03.941Z,21.34
2019-06-10T01:28:03.933Z,21.19
2019-06-10T01:29:03.920Z,21.37
2019-06-10T01:30:11.292Z,21.40
2019-06-10T01:31:09.317Z,21.37
2019-06-10T01:32:05.218Z,21.28
2019-06-10T01:33:03.869Z,21.36
2019-06-10T01:34:03.861Z,21.31
2019-06-10T01:35:03.867Z,21.22
2019-06-10T01:36:03.856Z,21.36
2019-06-10T01:37:03.832Z,21.36
2019-06-10T01:38:03.817Z,21.22
2019-06-10T01:39:03.805Z,21.37
2019-06-10T01:40:03.801Z,21.34
2019-06-10T01:41:03.801Z,21.18
2019-06-10T01:42:03.778Z,21.34
2019-06-10T01:43:03.767Z,21.36
2019-06-10T01:44:03.762Z,21.34
2019-06-10T01:45:03.739Z,21.34
2019-06-10T01:46:03.738Z,21.36
2019-06-10T01:47:03.724Z,21.36
2019-06-10T01:48:03.716Z,21.21
2019-06-10T01:49:03.703Z,21.38
2019-06-10T01:50:03.689Z,21.24
2019-06-10T01:51:03.700Z,21.37
2019-06-10T01:52:03.672Z,21.37
2019-06-10T01:53:03.653Z,21.31
2019-06-10T01:54:03.645Z,21.30
2019-06-10T01:55:03.640Z,21.31
2019-06-10T01:56:03.634Z,21.34
2019-06-10T01:57:03.612Z,21.28
2019-06-10T01:58:03.601Z,21.18
2019-06-10T01:59:03.598Z,21.19
2019-06-10T02:00:09.216Z,21.19
2019-06-10T02:01:04.565Z,21.33
2019-06-10T02:02:03.564Z,21.28
2019-06-10T02:03:03.807Z,21.28
2019-06-10T02:04:03.541Z,21.19
2019-06-10T02:05:03.531Z,21.27
2019-06-10T02:06:03.519Z,21.18
2019-06-10T02:07:03.518Z,21.12
2019-06-10T02:08:03.492Z,21.26
2019-06-10T02:09:03.487Z,21.12
2019-06-10T02:10:03.472Z,21.15
2019-06-10T02:11:03.465Z,21.21
2019-06-10T02:12:03.474Z,21.22
2019-06-10T02:13:03.444Z,21.15
2019-06-10T02:14:03.439Z,21.19
2019-06-10T02:15:03.428Z,21.22
2019-06-10T02:16:03.414Z,21.24
2019-06-10T02:17:03.414Z,21.22
2019-06-10T02:18:03.412Z,21.22
2019-06-10T02:19:04.216Z,21.19
2019-06-10T02:20:03.361Z,21.18
2019-06-10T02:21:03.350Z,21.21
2019-06-10T02:22:03.342Z,21.15
2019-06-10T02:23:03.339Z,21.15
2019-06-10T02:24:03.331Z,21.16
2019-06-10T02:25:03.310Z,21.19
2019-06-10T02:26:03.298Z,21.26
2019-06-10T02:27:03.287Z,21.27
2019-06-10T02:28:03.278Z,21.28
2019-06-10T02:29:03.280Z,21.19
2019-06-10T02:30:13.554Z,21.37
2019-06-10T02:31:04.251Z,21.31
2019-06-10T02:32:04.854Z,21.28
2019-06-10T02:33:03.229Z,21.27
2019-06-10T02:34:03.236Z,21.30
2019-06-10T02:35:10.449Z,21.28
2019-06-10T02:36:04.875Z,21.28
2019-06-10T02:37:04.659Z,21.30
2019-06-10T02:38:03.634Z,21.27
2019-06-10T02:39:04.528Z,21.27
2019-06-10T02:40:04.449Z,21.27
2019-06-10T02:41:04.754Z,21.16
2019-06-10T02:42:04.503Z,21.18
2019-06-10T02:43:03.647Z,21.15
2019-06-10T02:44:04.334Z,21.19
2019-06-10T02:45:04.038Z,21.11
2019-06-10T02:46:04.270Z,21.01
2019-06-10T02:47:03.570Z,20.82
2019-06-10T02:48:04.201Z,20.66
2019-06-10T02:49:21.448Z,20.66
2019-06-10T02:50:08.308Z,20.54
2019-06-10T02:51:04.308Z,20.58
2019-06-10T02:52:03.596Z,20.63
2019-06-10T02:53:04.066Z,20.66
2019-06-10T02:54:04.782Z,20.60
2019-06-10T02:55:04.120Z,20.66
2019-06-10T02:56:04.141Z,20.61
2019-06-10T02:57:04.424Z,20.57
2019-06-10T02:58:03.904Z,20.71
2019-06-10T02:59:03.479Z,20.61
2019-06-10T03:00:06.441Z,20.72
2019-06-10T03:01:04.565Z,20.57
2019-06-10T03:02:03.179Z,20.56
2019-06-10T03:03:03.837Z,20.41
2019-06-10T03:04:04.364Z,20.33
2019-06-10T03:05:04.620Z,20.34
2019-06-10T03:06:07.401Z,20.30
2019-06-10T03:07:03.892Z,20.33
2019-06-10T03:08:03.846Z,20.19
2019-06-10T03:09:03.708Z,20.16
2019-06-10T03:10:04.635Z,20.16
2019-06-10T03:11:03.839Z,19.97
2019-06-10T03:12:04.601Z,20.01
2019-06-10T03:13:02.797Z,19.97
2019-06-10T03:14:02.787Z,19.98
2019-06-10T03:15:02.776Z,19.89
2019-06-10T03:16:02.911Z,19.89
2019-06-10T03:17:03.153Z,19.87
2019-06-10T03:18:02.776Z,19.92
2019-06-10T03:19:03.086Z,19.79
2019-06-10T03:20:02.715Z,19.83
2019-06-10T03:21:02.839Z,19.80
2019-06-10T03:22:02.860Z,19.78
2019-06-10T03:23:03.042Z,19.78
2019-06-10T03:24:02.823Z,19.71
2019-06-10T03:25:03.019Z,19.80
2019-06-10T03:26:04.209Z,19.72
2019-06-10T03:27:02.811Z,19.82
2019-06-10T03:28:03.122Z,19.82
2019-06-10T03:29:02.863Z,19.76
2019-06-10T03:30:08.949Z,19.79
2019-06-10T03:31:05.554Z,19.71
2019-06-10T03:32:04.977Z,19.67
2019-06-10T03:33:05.056Z,19.49
2019-06-10T03:34:05.152Z,19.50
2019-06-10T03:35:05.537Z,19.49
2019-06-10T03:36:03.237Z,19.50
2019-06-10T03:37:02.581Z,19.55
2019-06-10T03:38:03.059Z,19.60
2019-06-10T03:39:02.708Z,19.57
2019-06-10T03:40:02.655Z,19.62
2019-06-10T03:41:03.341Z,19.57
2019-06-10T03:42:02.481Z,19.57
2019-06-10T03:43:11.934Z,19.57
2019-06-10T03:44:02.707Z,19.60
2019-06-10T03:45:03.366Z,19.65
2019-06-10T03:46:03.262Z,19.67
2019-06-10T03:47:02.841Z,19.61
2019-06-10T03:48:03.761Z,19.58
2019-06-10T03:49:03.135Z,19.62
2019-06-10T03:50:03.265Z,19.60
2019-06-10T03:51:03.414Z,19.67
2019-06-10T03:52:02.571Z,19.60
2019-06-10T03:53:04.372Z,19.68
2019-06-10T03:54:02.655Z,19.68
2019-06-10T03:55:03.113Z,19.65
2019-06-10T03:56:02.576Z,19.65
2019-06-10T03:57:02.928Z,19.58
2019-06-10T03:58:02.394Z,19.65
2019-06-10T03:59:02.818Z,19.61
2019-06-10T04:00:10.510Z,19.55
2019-06-10T04:01:03.467Z,19.61
2019-06-10T04:02:02.462Z,19.52
2019-06-10T04:03:02.721Z,19.55
2019-06-10T04:04:02.451Z,19.53
2019-06-10T04:05:02.855Z,19.47
2019-06-10T04:06:02.604Z,19.52
2019-06-10T04:07:03.831Z,19.50
2019-06-10T04:08:02.292Z,19.45
2019-06-10T04:09:02.766Z,19.38
2019-06-10T04:10:02.419Z,19.27
2019-06-10T04:11:03.043Z,19.23
2019-06-10T04:12:02.194Z,19.24
2019-06-10T04:13:02.590Z,19.20
2019-06-10T04:14:02.458Z,19.17
2019-06-10T04:15:03.047Z,19.23
2019-06-10T04:16:02.531Z,19.13
2019-06-10T04:17:02.748Z,19.15
2019-06-10T04:18:03.931Z,19.15
2019-06-10T04:19:02.658Z,19.15
2019-06-10T04:20:11.691Z,19.10
2019-06-10T04:21:03.069Z,19.10
2019-06-10T04:22:02.579Z,19.24
2019-06-10T04:23:02.769Z,19.21
2019-06-10T04:24:02.371Z,19.17
2019-06-10T04:25:03.023Z,19.16
2019-06-10T04:26:02.442Z,19.27
2019-06-10T04:27:02.813Z,19.34
2019-06-10T04:28:03.278Z,19.27
2019-06-10T04:29:02.551Z,19.25
2019-06-10T04:30:03.313Z,19.21
2019-06-10T04:31:02.696Z,19.25
2019-06-10T04:32:03.087Z,19.13
2019-06-10T04:33:02.398Z,19.20
2019-06-10T04:34:03.199Z,19.09
2019-06-10T04:35:02.421Z,19.15
2019-06-10T04:36:02.853Z,19.05
2019-06-10T04:37:03.108Z,18.91
2019-06-10T04:38:02.554Z,18.86
2019-06-10T04:39:03.232Z,19.02
2019-06-10T04:40:02.915Z,18.83
2019-06-10T04:41:03.401Z,18.90
2019-06-10T04:42:02.422Z,18.84
2019-06-10T04:43:03.012Z,18.87
2019-06-10T04:44:02.757Z,18.78
2019-06-10T04:45:03.209Z,18.89
2019-06-10T04:46:02.561Z,18.83
2019-06-10T04:47:02.683Z,18.74
2019-06-10T04:48:03.043Z,18.78
2019-06-10T04:49:02.753Z,18.83
2019-06-10T04:50:03.145Z,18.75
2019-06-10T04:51:02.681Z,18.74
2019-06-10T04:52:03.154Z,18.65
2019-06-10T04:53:02.302Z,18.54
2019-06-10T04:54:03.068Z,18.46
2019-06-10T04:55:02.510Z,18.49
2019-06-10T04:56:02.959Z,18.42
2019-06-10T04:57:02.250Z,18.41
2019-06-10T04:58:02.509Z,18.35
2019-06-10T04:59:03.125Z,18.31
2019-06-10T05:00:04.068Z,18.41
2019-06-10T05:01:03.283Z,18.34
2019-06-10T05:02:02.452Z,18.32
2019-06-10T05:03:02.940Z,18.41
2019-06-10T05:04:03.116Z,18.41
2019-06-10T05:05:02.880Z,18.36
2019-06-10T05:06:03.272Z,18.36
2019-06-10T05:07:02.138Z,18.44
2019-06-10T05:08:02.644Z,18.38
2019-06-10T05:09:04.016Z,18.46
2019-06-10T05:10:03.264Z,18.41
2019-06-10T05:11:03.692Z,18.38
2019-06-10T05:12:02.828Z,18.38
2019-06-10T05:13:03.149Z,18.28
2019-06-10T05:14:02.740Z,18.38
2019-06-10T05:15:03.458Z,18.31
2019-06-10T05:16:03.566Z,18.28
2019-06-10T05:17:02.229Z,18.26
2019-06-10T05:18:03.348Z,18.35
2019-06-10T05:19:03.873Z,18.32
2019-06-10T05:20:02.487Z,18.36
2019-06-10T05:21:02.914Z,18.32
2019-06-10T05:22:03.123Z,18.39
2019-06-10T05:23:02.296Z,18.34
2019-06-10T05:24:02.907Z,18.46
2019-06-10T05:25:02.450Z,18.42
2019-06-10T05:26:02.759Z,18.46
2019-06-10T05:27:02.109Z,18.54
2019-06-10T05:28:02.883Z,18.49
2019-06-10T05:29:03.118Z,18.49
2019-06-10T05:30:02.305Z,18.57
2019-06-10T05:31:02.878Z,18.44
2019-06-10T05:32:02.501Z,18.59
2019-06-10T05:33:02.989Z,18.59
2019-06-10T05:34:02.364Z,18.59
2019-06-10T05:35:03.516Z,18.54
2019-06-10T05:36:02.521Z,18.50
2019-06-10T05:37:02.756Z,18.57
2019-06-10T05:38:02.451Z,18.60
2019-06-10T05:39:02.745Z,18.79
2019-06-10T05:40:02.253Z,18.79
2019-06-10T05:41:02.873Z,18.82
2019-06-10T05:42:03.294Z,18.86
2019-06-10T05:43:02.450Z,18.90
2019-06-10T05:44:02.698Z,18.96
2019-06-10T05:45:03.111Z,18.97
2019-06-10T05:46:02.822Z,19.07
2019-06-10T05:47:03.618Z,19.15
2019-06-10T05:48:02.844Z,19.15
2019-06-10T05:49:03.095Z,19.12
2019-06-10T05:50:03.284Z,19.10
2019-06-10T05:51:03.818Z,19.02
2019-06-10T05:52:02.131Z,19.12
2019-06-10T05:53:02.512Z,19.01
2019-06-10T05:54:02.182Z,19.01
2019-06-10T05:55:02.886Z,18.90
2019-06-10T05:56:02.216Z,18.78
2019-06-10T05:57:02.658Z,18.82
2019-06-10T05:58:02.565Z,18.93
2019-06-10T05:59:04.213Z,18.91
2019-06-10T06:00:10.754Z,18.93
2019-06-10T06:01:02.663Z,18.94
2019-06-10T06:02:02.328Z,18.97
2019-06-10T06:03:02.748Z,19.06
2019-06-10T06:04:03.166Z,19.09
2019-06-10T06:05:02.558Z,19.09
2019-06-10T06:06:03.256Z,19.20
2019-06-10T06:07:02.370Z,19.21
2019-06-10T06:08:05.563Z,19.16
2019-06-10T06:09:02.294Z,19.24
2019-06-10T06:10:02.407Z,19.23
2019-06-10T06:11:02.992Z,19.15
2019-06-10T06:12:02.502Z,19.24
2019-06-10T06:13:02.936Z,19.23
2019-06-10T06:14:02.696Z,19.21
2019-06-10T06:15:02.410Z,19.23
2019-06-10T06:16:03.010Z,19.15
2019-06-10T06:17:02.256Z,19.13
2019-06-10T06:18:07.213Z,19.10
2019-06-10T06:19:03.287Z,19.21
2019-06-10T06:20:02.775Z,19.25
2019-06-10T06:21:20.086Z,19.25
2019-06-10T06:22:02.234Z,19.42
2019-06-10T06:23:02.785Z,19.42
2019-06-10T06:24:03.846Z,19.46
2019-06-10T06:25:03.724Z,19.55
2019-06-10T06:26:03.652Z,19.67
2019-06-10T06:27:02.473Z,19.65
2019-06-10T06:28:02.872Z,19.86
2019-06-10T06:29:02.245Z,19.86
2019-06-10T06:30:04.084Z,19.90
2019-06-10T06:31:03.315Z,19.95
2019-06-10T06:32:02.712Z,20.01
2019-06-10T06:33:02.898Z,20.22
2019-06-10T06:34:02.964Z,20.16
2019-06-10T06:35:02.125Z,20.26
2019-06-10T06:36:03.298Z,20.30
2019-06-10T06:37:02.223Z,20.53
2019-06-10T06:38:02.586Z,20.54
2019-06-10T06:39:02.302Z,20.57
2019-06-10T06:40:02.862Z,20.54
2019-06-10T06:41:02.956Z,20.56
2019-06-10T06:42:02.230Z,20.44
2019-06-10T06:43:02.635Z,20.63
2019-06-10T06:44:02.307Z,20.50
2019-06-10T06:45:02.821Z,20.54
2019-06-10T06:46:02.418Z,20.40
2019-06-10T06:47:02.670Z,20.57
2019-06-10T06:48:02.879Z,20.53
2019-06-10T06:49:02.090Z,20.54
2019-06-10T06:50:02.659Z,20.60
2019-06-10T06:51:07.419Z,20.57
2019-06-10T06:52:02.899Z,20.69
2019-06-10T06:53:19.977Z,20.61
2019-06-10T06:54:03.281Z,20.54
2019-06-10T06:55:02.487Z,20.54
2019-06-10T06:56:02.995Z,20.56
2019-06-10T06:57:03.234Z,20.48
2019-06-10T06:58:00.374Z,20.41
2019-06-10T06:59:02.390Z,20.46
2019-06-10T07:00:00.359Z,20.34
2019-06-10T07:01:09.910Z,20.44
2019-06-10T07:02:02.778Z,20.44
2019-06-10T07:03:00.329Z,20.53
2019-06-10T07:04:02.427Z,20.60
2019-06-10T07:05:00.312Z,20.58
2019-06-10T07:06:02.624Z,20.64
2019-06-10T07:07:02.623Z,20.54
2019-06-10T07:08:02.366Z,20.69
2019-06-10T07:09:05.453Z,20.57
2019-06-10T07:10:03.372Z,20.72
2019-06-10T07:11:02.683Z,20.75
2019-06-10T07:12:02.496Z,20.91
2019-06-10T07:13:02.714Z,21.03
2019-06-10T07:14:00.226Z,21.01
2019-06-10T07:15:00.192Z,21.05
2019-06-10T07:16:02.921Z,21.08
2019-06-10T07:17:00.176Z,21.16
2019-06-10T07:18:02.337Z,21.22
2019-06-10T07:19:02.487Z,21.31
2019-06-10T07:20:00.144Z,21.34
2019-06-10T07:21:02.545Z,21.33
2019-06-10T07:22:09.643Z,21.28
2019-06-10T07:23:02.688Z,21.36
2019-06-10T07:24:00.101Z,21.30
2019-06-10T07:25:04.136Z,21.28
2019-06-10T07:26:02.274Z,21.24
2019-06-10T07:27:02.625Z,21.28
2019-06-10T07:28:02.036Z,21.16
2019-06-10T07:29:02.746Z,21.22
2019-06-10T07:30:00.038Z,21.37
2019-06-10T07:31:00.049Z,21.27
2019-06-10T07:32:00.017Z,21.36
2019-06-10T07:33:00.002Z,21.36
2019-06-10T07:34:02.433Z,21.51
2019-06-10T07:34:59.981Z,21.51
2019-06-10T07:35:59.992Z,21.48
2019-06-10T07:37:02.488Z,21.52
2019-06-10T07:37:59.972Z,21.52
2019-06-10T07:38:59.937Z,21.58
2019-06-10T07:39:59.928Z,21.59
2019-06-10T07:41:02.395Z,21.71
2019-06-10T07:41:59.911Z,21.75
2019-06-10T07:43:02.216Z,21.64
2019-06-10T07:43:59.898Z,21.64
2019-06-10T07:45:02.411Z,21.61
2019-06-10T07:45:59.862Z,21.58
2019-06-10T07:47:02.470Z,21.58
2019-06-10T07:47:59.862Z,21.73
2019-06-10T07:49:03.176Z,21.71
2019-06-10T07:49:59.822Z,21.83
2019-06-10T07:51:02.577Z,21.85
2019-06-10T07:52:13.025Z,21.83
2019-06-10T07:53:02.316Z,21.79
2019-06-10T07:53:59.779Z,21.73
2019-06-10T07:55:02.361Z,21.81
2019-06-10T07:55:59.761Z,21.73
2019-06-10T07:57:02.265Z,21.75
2019-06-10T07:57:59.739Z,21.82
2019-06-10T07:58:59.728Z,21.77
2019-06-10T07:59:59.709Z,21.73
2019-06-10T08:01:02.440Z,21.74
2019-06-10T08:01:59.701Z,21.86
2019-06-10T08:03:02.298Z,21.93
2019-06-10T08:03:59.676Z,21.93
2019-06-10T08:04:59.663Z,21.93
2019-06-10T08:05:59.649Z,21.96
2019-06-10T08:06:59.643Z,22.06
2019-06-10T08:07:59.624Z,22.02
2019-06-10T08:09:01.806Z,22.08
2019-06-10T08:09:59.602Z,22.11
2019-06-10T08:10:59.613Z,22.27
2019-06-10T08:12:03.386Z,22.27
2019-06-10T08:13:02.849Z,22.31
2019-06-10T08:13:59.571Z,22.33
2019-06-10T08:15:02.535Z,22.45
2019-06-10T08:15:59.545Z,22.51
2019-06-10T08:16:59.539Z,22.69
2019-06-10T08:17:59.545Z,22.82
2019-06-10T08:19:22.092Z,22.94
2019-06-10T08:20:02.546Z,23.19
2019-06-10T08:20:59.498Z,23.32
2019-06-10T08:21:59.489Z,23.35
2019-06-10T08:23:02.114Z,23.25
2019-06-10T08:23:59.466Z,23.31
2019-06-10T08:24:59.447Z,23.29
2019-06-10T08:25:59.469Z,23.23
2019-06-10T08:26:59.430Z,23.31
2019-06-10T08:27:59.417Z,23.23
2019-06-10T08:28:59.413Z,23.21
2019-06-10T08:30:14.083Z,23.25
2019-06-10T08:31:00.398Z,23.39
2019-06-10T08:31:59.366Z,23.41
2019-06-10T08:32:59.372Z,23.47
2019-06-10T08:33:59.350Z,23.39
2019-06-10T08:34:59.334Z,23.32
2019-06-10T08:36:00.787Z,23.25
2019-06-10T08:36:59.324Z,23.38
2019-06-10T08:37:59.310Z,23.23
2019-06-10T08:38:59.295Z,23.18
2019-06-10T08:39:59.285Z,23.14
2019-06-10T08:40:59.277Z,23.16
2019-06-10T08:41:59.304Z,23.26
2019-06-10T08:42:59.247Z,23.15
2019-06-10T08:43:59.237Z,23.18
2019-06-10T08:45:00.146Z,23.19
2019-06-10T08:45:59.220Z,23.25
2019-06-10T08:46:59.212Z,23.18
2019-06-10T08:47:59.207Z,23.21
2019-06-10T08:48:59.193Z,23.18
2019-06-10T08:49:59.174Z,23.31
2019-06-10T08:50:59.167Z,23.29
2019-06-10T08:51:59.158Z,23.34
2019-06-10T08:53:12.797Z,23.45
2019-06-10T08:54:02.336Z,23.39
2019-06-10T08:54:59.123Z,23.32
2019-06-10T08:55:59.112Z,23.34
2019-06-10T08:56:59.101Z,23.32
2019-06-10T08:57:59.098Z,23.37
2019-06-10T08:58:59.157Z,23.49
2019-06-10T08:59:59.071Z,23.60
2019-06-10T09:00:59.063Z,23.57
2019-06-10T09:01:59.049Z,23.71
2019-06-10T09:02:59.041Z,23.92
2019-06-10T09:03:59.022Z,23.90
2019-06-10T09:04:59.012Z,24.14
2019-06-10T09:05:59.000Z,24.29
2019-06-10T09:06:58.989Z,24.49
2019-06-10T09:07:58.991Z,24.52
2019-06-10T09:08:58.970Z,24.56
2019-06-10T09:09:58.985Z,24.55
2019-06-10T09:10:58.948Z,24.61
2019-06-10T09:11:58.946Z,24.63
2019-06-10T09:12:58.928Z,24.51
2019-06-10T09:13:58.915Z,24.53
2019-06-10T09:14:58.935Z,24.52
2019-06-10T09:16:10.984Z,24.49
2019-06-10T09:16:59.891Z,24.53
2019-06-10T09:17:58.884Z,24.60
2019-06-10T09:18:58.864Z,24.48
2019-06-10T09:19:58.853Z,24.66
2019-06-10T09:20:58.857Z,24.60
2019-06-10T09:21:58.837Z,24.68
2019-06-10T09:23:16.844Z,24.99
2019-06-10T09:24:03.510Z,25.02
2019-06-10T09:24:58.843Z,24.99
2019-06-10T09:25:58.789Z,25.05
2019-06-10T09:26:58.787Z,25.07
2019-06-10T09:27:58.774Z,25.04
2019-06-10T09:28:58.758Z,25.12
2019-06-10T09:29:58.747Z,24.90
2019-06-10T09:30:59.723Z,24.94
2019-06-10T09:31:58.744Z,24.98
2019-06-10T09:33:03.427Z,25.17
2019-06-10T09:33:59.711Z,25.29
2019-06-10T09:34:58.703Z,25.36
2019-06-10T09:35:58.688Z,25.46
2019-06-10T09:36:58.683Z,25.48
2019-06-10T09:37:58.666Z,25.56
2019-06-10T09:38:58.690Z,25.46
2019-06-10T09:39:59.880Z,25.67
2019-06-10T09:41:01.703Z,25.72
2019-06-10T09:42:02.782Z,25.72
2019-06-10T09:42:59.610Z,25.82
2019-06-10T09:44:05.660Z,25.96
2019-06-10T09:44:58.599Z,25.91
2019-06-10T09:45:58.578Z,26.17
2019-06-10T09:47:00.320Z,26.32
2019-06-10T09:48:00.117Z,26.42
2019-06-10T09:48:59.547Z,26.20
2019-06-10T09:49:58.552Z,26.00
2019-06-10T09:50:59.163Z,25.86
2019-06-10T09:51:58.516Z,25.71
2019-06-10T09:52:58.510Z,25.66
2019-06-10T09:54:05.570Z,25.75
2019-06-10T09:54:59.523Z,25.91
2019-06-10T09:55:58.478Z,25.94
2019-06-10T09:56:58.462Z,25.90
2019-06-10T09:58:00.060Z,26.00
2019-06-10T09:58:58.444Z,25.96
2019-06-10T09:59:58.429Z,25.91
2019-06-10T10:00:58.574Z,25.81
2019-06-10T10:02:02.708Z,25.89
2019-06-10T10:02:59.403Z,25.75
2019-06-10T10:04:00.571Z,25.83
2019-06-10T10:04:58.778Z,26.01
2019-06-10T10:06:09.891Z,26.03
2019-06-10T10:06:59.359Z,25.91
2019-06-10T10:07:58.351Z,26.06
2019-06-10T10:08:58.655Z,26.19
2019-06-10T10:09:58.331Z,26.12
2019-06-10T10:10:59.134Z,26.23
2019-06-10T10:11:58.317Z,26.23
2019-06-10T10:12:58.301Z,26.21
2019-06-10T10:13:58.284Z,26.49
2019-06-10T10:14:58.275Z,26.88
2019-06-10T10:15:58.267Z,26.96
2019-06-10T10:17:00.504Z,26.97
2019-06-10T10:17:58.249Z,26.78
2019-06-10T10:19:00.696Z,26.64
2019-06-10T10:19:59.222Z,26.93
2019-06-10T10:21:00.373Z,27.78
2019-06-10T10:21:58.659Z,28.14
2019-06-10T10:22:58.188Z,28.28
2019-06-10T10:24:06.753Z,28.21
2019-06-10T10:24:59.168Z,28.45
2019-06-10T10:25:58.157Z,28.25
2019-06-10T10:27:01.799Z,28.14
2019-06-10T10:27:59.170Z,28.02
2019-06-10T10:28:58.157Z,27.90
2019-06-10T10:29:58.123Z,27.81
2019-06-10T10:30:58.337Z,27.74
2019-06-10T10:31:58.099Z,27.55
2019-06-10T10:32:58.126Z,27.20
2019-06-10T10:33:58.074Z,26.64
2019-06-10T10:34:58.069Z,26.59
2019-06-10T10:35:58.074Z,26.53
2019-06-10T10:36:58.049Z,26.65
2019-06-10T10:37:58.039Z,26.65
2019-06-10T10:38:58.036Z,26.50
2019-06-10T10:39:58.011Z,26.69
2019-06-10T10:40:59.168Z,26.73
2019-06-10T10:41:57.991Z,26.53
2019-06-10T10:43:16.356Z,26.59
2019-06-10T10:43:58.971Z,26.66
2019-06-10T10:44:59.285Z,26.68
2019-06-10T10:46:00.543Z,26.76
2019-06-10T10:46:58.946Z,26.87
2019-06-10T10:47:57.934Z,26.94
2019-06-10T10:48:57.928Z,26.90
2019-06-10T10:49:57.911Z,26.98
2019-06-10T10:50:57.902Z,26.98
2019-06-10T10:51:57.889Z,27.13
2019-06-10T10:52:57.888Z,27.20
2019-06-10T10:54:29.362Z,27.28
2019-06-10T10:54:58.857Z,27.38
2019-06-10T10:55:57.854Z,27.40
2019-06-10T10:56:59.225Z,27.42
2019-06-10T10:57:57.828Z,27.55
2019-06-10T10:58:58.647Z,27.58
2019-06-10T10:59:57.810Z,27.58
2019-06-10T11:00:58.153Z,27.72
2019-06-10T11:01:57.786Z,27.72
2019-06-10T11:02:57.774Z,27.63
2019-06-10T11:03:59.291Z,27.61
2019-06-10T11:04:57.762Z,27.53
2019-06-10T11:06:00.889Z,27.58
2019-06-10T11:07:00.430Z,27.48
2019-06-10T11:07:57.717Z,27.39
2019-06-10T11:08:57.886Z,27.23
2019-06-10T11:09:57.707Z,27.03
2019-06-10T11:11:00.940Z,26.96
2019-06-10T11:11:58.672Z,26.93
2019-06-10T11:12:57.933Z,26.93
2019-06-10T11:13:58.507Z,26.97
2019-06-10T11:15:01.756Z,26.81
2019-06-10T11:15:58.633Z,26.79
2019-06-10T11:16:59.045Z,26.78
2019-06-10T11:17:58.272Z,26.78
2019-06-10T11:18:58.065Z,26.84
2019-06-10T11:19:57.834Z,26.69
2019-06-10T11:21:01.275Z,26.79
2019-06-10T11:21:58.574Z,26.78
2019-06-10T11:22:58.001Z,26.79
2019-06-10T11:24:01.418Z,26.91
2019-06-10T11:24:58.535Z,26.98
2019-06-10T11:25:58.971Z,26.87
2019-06-10T11:26:58.470Z,27.01
2019-06-10T11:27:57.522Z,26.97
2019-06-10T11:28:57.949Z,27.08
2019-06-10T11:29:59.041Z,27.06
2019-06-10T11:30:58.676Z,27.06
2019-06-10T11:31:58.723Z,27.09
2019-06-10T11:32:59.595Z,27.11
2019-06-10T11:33:59.095Z,27.11
2019-06-10T11:34:58.673Z,27.20
2019-06-10T11:35:59.225Z,27.25
2019-06-10T11:36:58.297Z,27.27
2019-06-10T11:37:58.206Z,27.39
2019-06-10T11:38:59.069Z,27.53
2019-06-10T11:39:57.390Z,27.69
2019-06-10T11:40:59.959Z,27.83
2019-06-10T11:41:57.718Z,27.86
2019-06-10T11:42:59.700Z,27.91
2019-06-10T11:43:59.249Z,27.96
2019-06-10T11:44:59.506Z,27.76
2019-06-10T11:46:02.996Z,27.86
2019-06-10T11:46:59.755Z,27.68
2019-06-10T11:47:58.269Z,27.62
2019-06-10T11:48:59.043Z,27.68
2019-06-10T11:49:58.084Z,27.61
2019-06-10T11:51:00.235Z,27.65
2019-06-10T11:51:59.477Z,27.69
2019-06-10T11:53:00.531Z,27.74
2019-06-10T11:53:58.662Z,27.72
2019-06-10T11:55:10.941Z,27.68
2019-06-10T11:55:58.209Z,27.76
2019-06-10T11:56:58.566Z,27.68
2019-06-10T11:57:58.164Z,27.65
2019-06-10T11:59:00.056Z,27.71
2019-06-10T11:59:58.188Z,27.78
2019-06-10T12:00:59.344Z,27.77
2019-06-10T12:02:00.374Z,27.69
2019-06-10T12:02:58.978Z,27.81
2019-06-10T12:03:58.902Z,27.76
2019-06-10T12:05:00.303Z,27.86
2019-06-10T12:05:59.377Z,27.83
2019-06-10T12:06:57.185Z,27.87
2019-06-10T12:07:59.849Z,27.76
2019-06-10T12:08:59.435Z,27.88
2019-06-10T12:10:00.810Z,27.80
2019-06-10T12:11:00.266Z,27.68
2019-06-10T12:12:01.394Z,27.66
2019-06-10T12:13:00.565Z,27.55
2019-06-10T12:14:02.868Z,27.61
2019-06-10T12:14:59.950Z,27.65
2019-06-10T12:17:24.664Z,27.74
2019-06-10T12:18:05.244Z,27.69
2019-06-10T12:18:58.994Z,27.81
2019-06-10T12:20:00.627Z,27.87
2019-06-10T12:21:01.690Z,27.84
2019-06-10T12:22:02.398Z,27.87
2019-06-10T12:22:58.802Z,27.86
2019-06-10T12:24:00.798Z,27.81
2019-06-10T12:25:26.742Z,27.74
2019-06-10T12:25:59.420Z,27.81
2019-06-10T12:26:58.716Z,27.78
2019-06-10T12:27:59.708Z,27.72
2019-06-10T12:28:59.377Z,27.68
2019-06-10T12:29:58.561Z,27.50
2019-06-10T12:31:01.132Z,27.52
2019-06-10T12:32:01.267Z,27.53
2019-06-10T12:32:59.522Z,27.50
2019-06-10T12:33:57.643Z,27.28
2019-06-10T12:34:57.965Z,27.34
2019-06-10T12:36:00.313Z,27.42
2019-06-10T12:37:02.235Z,27.40
2019-06-10T12:37:59.794Z,27.46
2019-06-10T12:39:01.517Z,27.49
2019-06-10T12:39:59.397Z,27.43
2019-06-10T12:40:58.934Z,27.43
2019-06-10T12:41:59.242Z,27.43
2019-06-10T12:42:59.367Z,27.45
2019-06-10T12:43:56.750Z,27.53
2019-06-10T12:44:57.690Z,27.58
2019-06-10T12:45:57.867Z,27.62
2019-06-10T12:46:58.966Z,27.72
2019-06-10T12:47:58.378Z,27.77
2019-06-10T12:49:00.091Z,27.90
2019-06-10T12:49:59.062Z,27.90
2019-06-10T12:50:58.907Z,28.03
2019-06-10T12:51:57.459Z,28.30
2019-06-10T12:52:57.783Z,28.39